Time;durP1;ratioP1;P1;durP2;ratioP2;P2;SDS_P1;SDS_P2;PMS_P1;PMS_P2;Temp;Humidity;BMP_temperature;BMP_pressure;BME280_temperature;BME280_humidity;BME280_pressure;Samples;Min_cycle;Max_cycle;Signal;HPM_P1;HPM_P2
2023/02/12 00:01:24;;;;;;;17.23;7.70;;;;;;;6.69;100.00;102868.44;5019828;28;20045;-80
2023/02/12 00:03:51;;;;;;;14.48;8.13;;;;;;;6.72;100.00;102879.00;4997235;28;20073;-76
2023/02/12 00:06:18;;;;;;;20.20;7.78;;;;;;;6.69;100.00;102871.94;5008973;28;20041;-77
2023/02/12 00:08:51;;;;;;;15.95;7.88;;;;;;;6.70;100.00;102872.81;5043310;28;20514;-78
2023/02/12 00:11:23;;;;;;;15.95;7.93;;;;;;;6.72;100.00;102876.38;5023848;28;20048;-79
2023/02/12 00:13:50;;;;;;;15.40;7.47;;;;;;;6.69;100.00;102873.63;5028946;28;20119;-79
2023/02/12 00:16:21;;;;;;;14.85;7.43;;;;;;;6.69;100.00;102879.75;5016866;28;20042;-77
2023/02/12 00:18:51;;;;;;;17.85;7.35;;;;;;;6.69;100.00;102881.44;5034573;28;20041;-76
2023/02/12 00:21:18;;;;;;;17.70;8.48;;;;;;;6.68;100.00;102883.16;5026068;28;20045;-82
2023/02/12 00:23:45;;;;;;;14.70;7.75;;;;;;;6.68;100.00;102903.13;5042231;28;20048;-82
2023/02/12 00:26:16;;;;;;;12.80;6.68;;;;;;;6.67;100.00;102891.78;5013411;28;20049;-77
2023/02/12 00:28:44;;;;;;;19.58;7.90;;;;;;;6.66;100.00;102896.94;5011839;28;20046;-78
2023/02/12 00:31:15;;;;;;;20.10;8.48;;;;;;;6.66;100.00;102902.16;5029024;28;20068;-77
2023/02/12 00:33:42;;;;;;;18.17;7.85;;;;;;;6.65;100.00;102901.25;5043348;28;20059;-80
2023/02/12 00:36:11;;;;;;;14.90;7.88;;;;;;;6.64;100.00;102896.00;5042799;28;20136;-79
2023/02/12 00:38:37;;;;;;;16.52;8.52;;;;;;;6.64;100.00;102896.88;5029752;28;20073;-77
2023/02/12 00:41:06;;;;;;;13.65;7.50;;;;;;;6.59;100.00;102888.84;5031976;28;20057;-77
2023/02/12 00:43:33;;;;;;;18.58;8.63;;;;;;;6.58;100.00;102901.81;5013915;28;20475;-77
2023/02/12 00:46:00;;;;;;;17.05;8.40;;;;;;;6.56;100.00;102904.34;5046921;28;20033;-77
2023/02/12 00:48:28;;;;;;;14.18;8.05;;;;;;;6.54;100.00;102903.38;5043644;28;20060;-82
2023/02/12 00:50:54;;;;;;;15.82;8.43;;;;;;;6.53;100.00;102900.72;5033894;28;20037;-79
2023/02/12 00:53:21;;;;;;;24.27;11.85;;;;;;;6.53;100.00;102900.72;5028583;28;20046;-78
2023/02/12 00:55:48;;;;;;;19.50;8.98;;;;;;;6.52;100.00;102898.94;5050882;28;20041;-77
2023/02/12 00:58:15;;;;;;;13.27;9.15;;;;;;;6.50;100.00;102895.38;5046347;28;20037;-87
2023/02/12 01:00:43;;;;;;;14.45;8.57;;;;;;;6.49;100.00;102904.00;5043651;28;20076;-77
2023/02/12 01:03:10;;;;;;;17.70;8.52;;;;;;;6.48;100.00;102900.53;5026607;28;20125;-78
2023/02/12 01:05:37;;;;;;;13.77;7.85;;;;;;;6.46;100.00;102909.97;5001974;28;20048;-88
2023/02/12 01:08:05;;;;;;;14.30;8.77;;;;;;;6.45;100.00;102908.19;5022869;28;20048;-77
2023/02/12 01:10:32;;;;;;;17.67;8.25;;;;;;;6.43;100.00;102905.50;5043836;28;20045;-82
2023/02/12 01:12:59;;;;;;;16.23;8.65;;;;;;;6.42;100.00;102908.94;5024207;28;20060;-79
2023/02/12 01:15:25;;;;;;;15.13;9.15;;;;;;;6.41;100.00;102914.06;5009986;28;20081;-85
2023/02/12 01:17:53;;;;;;;16.67;8.98;;;;;;;6.42;100.00;102913.25;5024652;28;20522;-78
2023/02/12 01:20:23;;;;;;;16.10;8.68;;;;;;;6.40;100.00;102918.41;5024944;28;20038;-83
2023/02/12 01:22:51;;;;;;;16.15;9.55;;;;;;;6.36;100.00;102913.88;5037905;28;20499;-77
2023/02/12 01:25:18;;;;;;;21.30;9.23;;;;;;;6.38;100.00;102916.53;5030248;28;20048;-78
2023/02/12 01:27:44;;;;;;;13.82;8.98;;;;;;;6.36;100.00;102915.56;5012544;28;20041;-82
2023/02/12 01:30:20;;;;;;;15.80;8.88;;;;;;;6.35;100.00;102904.28;5026581;28;20133;-78
2023/02/12 01:32:47;;;;;;;20.20;9.43;;;;;;;6.35;100.00;102913.78;5026495;28;20041;-78
2023/02/12 01:35:14;;;;;;;17.30;8.57;;;;;;;6.34;100.00;102909.44;5022129;28;20042;-78
2023/02/12 01:37:40;;;;;;;19.38;9.15;;;;;;;6.34;100.00;102906.84;5011042;28;20048;-79
2023/02/12 01:40:09;;;;;;;22.98;10.45;;;;;;;6.33;100.00;102908.53;5028660;28;20041;-79
2023/02/12 01:42:36;;;;;;;27.02;11.05;;;;;;;6.33;100.00;102907.66;5023282;28;20058;-77
2023/02/12 01:45:45;;;;;;;23.60;10.25;;;;;;;6.31;100.00;102912.78;5027148;28;20130;-81
2023/02/12 01:48:14;;;;;;;20.80;9.05;;;;;;;6.31;100.00;102915.38;5007906;28;20128;-79
2023/02/12 01:50:43;;;;;;;18.63;10.23;;;;;;;6.31;100.00;102915.38;5030870;28;20091;-84
2023/02/12 01:53:11;;;;;;;18.13;10.00;;;;;;;6.32;100.00;102916.25;5010459;28;20041;-79
2023/02/12 01:55:38;;;;;;;19.27;9.52;;;;;;;6.31;100.00;102911.88;5024289;28;20046;-82
2023/02/12 01:58:09;;;;;;;18.05;10.50;;;;;;;6.30;100.00;102913.59;5016106;28;20056;-78
2023/02/12 02:00:36;;;;;;;19.88;9.90;;;;;;;6.30;100.00;102916.19;5041299;28;20511;-84
2023/02/12 02:03:03;;;;;;;22.00;10.68;;;;;;;6.32;100.00;102918.88;5049448;28;20104;-77
2023/02/12 02:06:18;;;;;;;20.38;10.25;;;;;;;6.32;100.00;102921.47;5027701;28;20045;-78
2023/02/12 02:08:47;;;;;;;19.90;10.02;;;;;;;6.33;100.00;102920.66;4964575;28;20099;-79
2023/02/12 02:16:59;;;;;;;17.27;9.15;;;;;;;6.36;100.00;102923.38;5008603;28;20057;-79
2023/02/12 02:19:51;;;;;;;17.13;9.70;;;;;;;6.36;100.00;102913.88;4995766;28;20080;-81
2023/02/12 02:22:48;;;;;;;14.98;8.95;;;;;;;6.35;100.00;102912.09;5027146;28;20088;-77
2023/02/12 02:25:56;;;;;;;15.90;9.77;;;;;;;6.35;100.00;102909.50;5006221;28;20050;-83
2023/02/12 02:28:55;;;;;;;15.30;9.02;;;;;;;6.35;100.00;102904.28;5024478;28;20045;-76
2023/02/12 02:31:41;;;;;;;24.05;9.55;;;;;;;6.36;100.00;102905.16;5025832;28;20128;-78
2023/02/12 02:34:21;;;;;;;17.70;10.00;;;;;;;6.36;100.00;102908.69;4991513;28;20352;-77
2023/02/12 02:37:18;;;;;;;13.27;9.70;;;;;;;6.37;100.00;102912.16;5026232;28;20127;-77
2023/02/12 02:39:55;;;;;;;19.13;10.00;;;;;;;6.36;100.00;102912.97;5010781;28;20041;-82
2023/02/12 02:42:58;;;;;;;18.02;9.63;;;;;;;6.36;100.00;102913.88;5026923;28;20060;-77
2023/02/12 02:45:34;;;;;;;18.00;10.75;;;;;;;6.34;100.00;102904.22;5000672;28;21214;-80
2023/02/12 02:48:12;;;;;;;17.08;9.80;;;;;;;6.32;100.00;102896.34;4995326;28;20053;-79
2023/02/12 02:50:44;;;;;;;22.33;9.65;;;;;;;6.32;100.00;102901.53;5024540;28;20069;-78
2023/02/12 02:53:19;;;;;;;24.90;11.93;;;;;;;6.30;100.00;102903.19;5024821;28;20033;-77
2023/02/12 02:55:52;;;;;;;22.08;10.77;;;;;;;6.30;100.00;102903.19;5023934;28;20061;-81
2023/02/12 02:58:31;;;;;;;18.27;9.98;;;;;;;6.29;100.00;102906.59;5022057;28;20395;-77
2023/02/12 03:01:30;;;;;;;18.88;10.43;;;;;;;6.27;100.00;102905.63;5024066;28;20507;-76
2023/02/12 03:04:04;;;;;;;19.35;9.63;;;;;;;6.25;100.00;102904.69;5039251;28;20559;-82
2023/02/12 03:06:41;;;;;;;20.98;11.45;;;;;;;6.24;100.00;102909.00;5008733;28;20056;-78
2023/02/12 03:09:42;;;;;;;17.15;9.90;;;;;;;6.23;100.00;102909.84;5024532;28;20076;-77
2023/02/12 03:12:22;;;;;;;15.50;10.35;;;;;;;6.21;100.00;102913.19;5026527;28;20041;-80
2023/02/12 03:14:56;;;;;;;27.40;14.00;;;;;;;6.18;100.00;102913.94;5009679;28;20073;-77
2023/02/12 03:17:37;;;;;;;22.58;11.68;;;;;;;6.19;100.00;102926.13;5025981;28;20088;-79
2023/02/12 03:20:25;;;;;;;17.08;10.68;;;;;;;6.21;100.00;102926.19;5006946;28;20091;-80
2023/02/12 03:23:11;;;;;;;19.88;12.02;;;;;;;6.22;100.00;102925.34;5028516;28;20048;-82
2023/02/12 03:25:56;;;;;;;16.13;10.35;;;;;;;6.23;100.00;102925.44;5018221;28;20119;-86
2023/02/12 03:28:29;;;;;;;24.35;11.55;;;;;;;6.21;100.00;102929.66;5034934;28;20048;-80
2023/02/12 03:31:11;;;;;;;23.77;12.50;;;;;;;6.21;100.00;102928.78;5026883;28;20041;-86
2023/02/12 03:34:05;;;;;;;22.40;11.38;;;;;;;6.20;100.00;102938.28;5027302;28;20049;-80
2023/02/12 03:36:52;;;;;;;25.02;10.82;;;;;;;6.21;100.00;102934.88;5026744;28;20405;-85
2023/02/12 03:39:52;;;;;;;24.08;12.50;;;;;;;6.22;100.00;102935.75;5023325;28;20051;-78
2023/02/12 03:42:38;;;;;;;21.90;11.32;;;;;;;6.21;100.00;102940.06;5022498;28;20388;-77
2023/02/12 03:45:11;;;;;;;19.67;10.05;;;;;;;6.20;100.00;102946.09;5025175;28;20037;-79
2023/02/12 03:47:53;;;;;;;21.83;11.45;;;;;;;6.19;100.00;102954.75;5023099;28;20057;-80
2023/02/12 03:50:48;;;;;;;17.08;10.25;;;;;;;6.17;100.00;102948.56;5011827;28;20611;-80
2023/02/12 03:53:15;;;;;;;17.48;9.55;;;;;;;6.18;100.00;102959.84;5025137;28;20498;-83
2023/02/12 03:55:45;;;;;;;18.27;11.35;;;;;;;6.18;100.00;102958.16;5023512;28;20053;-84
2023/02/12 03:58:19;;;;;;;13.77;10.27;;;;;;;6.17;100.00;102958.97;5033398;28;20044;-80
2023/02/12 04:00:46;;;;;;;14.77;10.30;;;;;;;6.17;100.00;102966.75;5005122;28;20498;-83
2023/02/12 04:03:12;;;;;;;15.50;8.52;;;;;;;6.18;100.00;102970.25;5025314;28;20060;-81
2023/02/12 04:05:39;;;;;;;19.13;11.10;;;;;;;6.17;100.00;102971.97;5024144;28;20371;-83
2023/02/12 04:08:10;;;;;;;13.77;10.07;;;;;;;6.17;100.00;102974.56;5000690;28;20540;-88
2023/02/12 04:11:17;;;;;;;15.90;9.35;;;;;;;6.19;100.00;102974.63;5037619;28;20057;-81
2023/02/12 04:14:07;;;;;;;20.85;10.40;;;;;;;6.18;100.00;102976.34;5011283;28;20416;-80
2023/02/12 04:16:45;;;;;;;15.55;10.48;;;;;;;6.16;100.00;102984.91;5022978;28;20376;-83
2023/02/12 04:19:21;;;;;;;21.08;10.65;;;;;;;6.13;100.00;102985.66;5026892;28;20045;-77
2023/02/12 04:22:45;;;;;;;15.85;9.95;;;;;;;6.11;100.00;102983.00;5026595;28;20041;-81
2023/02/12 04:25:43;;;;;;;15.65;11.18;;;;;;;6.13;100.00;102996.94;5023329;28;20046;-82
2023/02/12 04:28:29;;;;;;;16.70;10.35;;;;;;;6.14;100.00;102990.03;5028303;28;20042;-78
2023/02/12 04:31:06;;;;;;;16.23;8.70;;;;;;;6.13;100.00;102996.06;5040727;28;20053;-86
2023/02/12 04:33:44;;;;;;;13.38;8.95;;;;;;;6.13;100.00;103009.94;5028794;28;20105;-86
2023/02/12 04:36:22;;;;;;;17.00;8.93;;;;;;;6.12;100.00;102999.47;4991604;28;20044;-80
2023/02/12 04:38:58;;;;;;;12.85;9.50;;;;;;;6.10;100.00;103003.69;5011273;28;20341;-82
2023/02/12 04:41:26;;;;;;;15.85;9.77;;;;;;;6.10;100.00;102999.41;5041961;28;20049;-78
2023/02/12 04:43:53;;;;;;;15.02;8.88;;;;;;;6.10;100.00;103003.69;5029137;28;20041;-81
2023/02/12 04:46:19;;;;;;;15.48;9.13;;;;;;;6.10;100.00;103006.28;5022315;28;20042;-77
2023/02/12 04:48:54;;;;;;;21.05;8.90;;;;;;;6.09;100.00;103000.22;5025481;28;20037;-78
2023/02/12 04:51:21;;;;;;;14.52;8.55;;;;;;;6.10;100.00;103004.59;5025872;28;20029;-77
2023/02/12 04:53:48;;;;;;;12.77;8.55;;;;;;;6.07;100.00;103001.84;5025808;28;20045;-80
2023/02/12 04:56:15;;;;;;;11.75;8.18;;;;;;;6.06;100.00;103002.69;5023293;28;20559;-80
2023/02/12 04:58:45;;;;;;;14.65;9.25;;;;;;;6.06;100.00;102999.16;5010820;28;20058;-77
2023/02/12 05:01:12;;;;;;;16.67;9.82;;;;;;;6.06;100.00;102999.16;5019337;28;20042;-77
2023/02/12 05:03:39;;;;;;;14.98;8.45;;;;;;;6.05;100.00;102998.28;5022547;28;20076;-79
2023/02/12 05:06:09;;;;;;;15.18;8.57;;;;;;;6.05;100.00;103003.50;5037550;28;20070;-88
2023/02/12 05:08:36;;;;;;;14.30;9.38;;;;;;;6.02;100.00;102992.94;5022019;28;20156;-78
2023/02/12 05:11:10;;;;;;;13.73;9.27;;;;;;;6.03;100.00;102999.91;5033171;28;20124;-77
2023/02/12 05:13:37;;;;;;;16.58;8.85;;;;;;;6.01;100.00;103000.66;5015434;28;20045;-80
2023/02/12 05:16:06;;;;;;;14.43;8.57;;;;;;;5.99;100.00;103000.59;5003721;28;20053;-79
2023/02/12 05:18:35;;;;;;;12.98;8.90;;;;;;;5.97;100.00;103002.19;5023597;28;20045;-83
2023/02/12 05:21:04;;;;;;;13.07;8.63;;;;;;;6.00;100.00;103004.97;5019266;28;20115;-82
2023/02/12 05:23:35;;;;;;;11.95;8.18;;;;;;;6.00;100.00;102996.25;5039011;28;20038;-78
2023/02/12 05:26:06;;;;;;;16.27;9.75;;;;;;;5.99;100.00;103005.78;5020932;28;20049;-80
2023/02/12 05:28:32;;;;;;;11.90;8.70;;;;;;;6.00;100.00;102999.78;5027955;28;20050;-82
2023/02/12 05:31:05;;;;;;;15.95;9.77;;;;;;;5.99;100.00;102998.00;5008862;28;20049;-76
2023/02/12 05:33:36;;;;;;;17.23;9.13;;;;;;;6.01;100.00;103000.66;5023033;28;20049;-83
2023/02/12 05:36:09;;;;;;;13.20;8.85;;;;;;;6.01;100.00;102998.97;5029452;28;20125;-77
2023/02/12 05:38:36;;;;;;;23.10;10.50;;;;;;;6.01;100.00;103009.38;5022654;28;20518;-80
2023/02/12 05:41:09;;;;;;;14.55;8.05;;;;;;;6.01;100.00;103004.16;5025139;28;20087;-77
2023/02/12 05:43:36;;;;;;;16.10;8.55;;;;;;;6.03;100.00;103012.91;5026364;28;20111;-77
2023/02/12 05:46:05;;;;;;;14.88;9.35;;;;;;;6.00;100.00;103006.66;5039373;28;20394;-86
2023/02/12 05:48:32;;;;;;;14.30;9.13;;;;;;;6.00;100.00;103017.06;5029213;28;20056;-86
2023/02/12 05:51:08;;;;;;;15.73;9.27;;;;;;;6.00;100.00;103011.88;5027039;28;20044;-84
2023/02/12 05:53:36;;;;;;;16.20;9.48;;;;;;;6.01;100.00;103019.78;5023760;28;20111;-86
2023/02/12 05:56:17;;;;;;;16.48;10.43;;;;;;;6.00;100.00;103011.88;5031958;28;20061;-89
2023/02/12 05:58:48;;;;;;;17.55;9.48;;;;;;;5.98;100.00;103014.41;5043961;28;20044;-79
2023/02/12 06:01:20;;;;;;;17.92;8.77;;;;;;;5.97;100.00;103017.78;5011210;28;20058;-85
2023/02/12 06:03:46;;;;;;;19.63;10.02;;;;;;;5.99;100.00;103025.72;5029457;28;20056;-77
2023/02/12 06:06:13;;;;;;;18.67;9.23;;;;;;;6.00;100.00;103023.19;5011616;28;20046;-81
2023/02/12 06:08:40;;;;;;;13.00;9.00;;;;;;;5.99;100.00;103017.91;5027906;28;20091;-81
2023/02/12 06:11:13;;;;;;;20.27;12.02;;;;;;;6.00;100.00;103022.25;5005952;28;20045;-78
2023/02/12 06:13:40;;;;;;;19.35;10.48;;;;;;;5.99;100.00;103020.50;5025341;28;20049;-80
2023/02/12 06:16:07;;;;;;;20.17;11.02;;;;;;;5.99;100.00;103020.50;5017450;28;20037;-83
2023/02/12 06:18:37;;;;;;;20.08;11.15;;;;;;;5.96;100.00;103019.50;5023919;28;20044;-82
2023/02/12 06:21:04;;;;;;;20.52;10.95;;;;;;;5.95;100.00;103020.31;5012979;28;20060;-88
2023/02/12 06:23:34;;;;;;;19.65;11.40;;;;;;;5.94;100.00;103028.94;5041923;28;20053;-86
2023/02/12 06:26:06;;;;;;;20.02;11.55;;;;;;;5.94;100.00;103031.56;5019050;28;20038;-80
2023/02/12 06:28:33;;;;;;;19.80;10.88;;;;;;;5.95;100.00;103027.22;5024773;28;20030;-77
2023/02/12 06:31:00;;;;;;;21.77;11.40;;;;;;;5.97;100.00;103031.69;5022978;28;20102;-83
2023/02/12 06:33:27;;;;;;;18.98;11.18;;;;;;;5.99;100.00;103029.19;5013982;28;20388;-81
2023/02/12 06:35:53;;;;;;;23.30;11.25;;;;;;;5.97;100.00;103025.56;5051031;28;20124;-79
2023/02/12 06:38:29;;;;;;;21.80;12.32;;;;;;;5.99;100.00;103029.19;5025255;28;20045;-77
2023/02/12 06:40:56;;;;;;;19.05;10.27;;;;;;;6.02;100.00;103034.53;5047207;28;20128;-86
2023/02/12 06:43:24;;;;;;;21.75;10.68;;;;;;;6.05;100.00;103031.19;5026755;28;20057;-80
2023/02/12 06:45:54;;;;;;;16.98;10.05;;;;;;;6.06;100.00;103040.78;5032327;28;20149;-80
2023/02/12 06:48:20;;;;;;;21.60;11.15;;;;;;;6.07;100.00;103046.03;5028200;28;20076;-78
2023/02/12 06:50:47;;;;;;;28.10;12.93;;;;;;;6.08;100.00;103052.16;5024325;28;20039;-79
2023/02/12 06:53:13;;;;;;;22.73;11.60;;;;;;;6.08;100.00;103054.75;5005903;28;20575;-81
2023/02/12 06:55:40;;;;;;;23.63;11.63;;;;;;;6.09;100.00;103054.81;5022135;28;20108;-78
2023/02/12 06:58:06;;;;;;;21.25;12.68;;;;;;;6.09;100.00;103054.81;5018054;28;20068;-78
2023/02/12 07:00:33;;;;;;;28.73;13.25;;;;;;;6.09;100.00;103060.03;5022693;28;20045;-77
2023/02/12 07:03:00;;;;;;;20.48;13.52;;;;;;;6.08;100.00;103063.44;5038712;28;20053;-77
2023/02/12 07:05:27;;;;;;;25.23;14.30;;;;;;;6.07;100.00;103060.75;5022548;28;20161;-77
2023/02/12 07:07:53;;;;;;;23.60;11.32;;;;;;;6.09;100.00;103066.94;5034776;28;20052;-78
2023/02/12 07:10:20;;;;;;;21.70;11.52;;;;;;;6.07;100.00;103061.66;5022280;28;20103;-77
2023/02/12 07:12:47;;;;;;;27.00;12.82;;;;;;;6.08;100.00;103062.56;5023937;28;20057;-79
2023/02/12 07:15:13;;;;;;;27.73;13.40;;;;;;;6.11;100.00;103074.00;4991436;28;20483;-80
2023/02/12 07:17:40;;;;;;;29.08;13.73;;;;;;;6.10;100.00;103074.81;5024978;28;20290;-80
2023/02/12 07:20:07;;;;;;;27.95;12.52;;;;;;;6.08;100.00;103071.22;5005384;28;20068;-81
2023/02/12 07:22:36;;;;;;;22.65;11.98;;;;;;;6.10;100.00;103071.31;5023240;28;20596;-77
2023/02/12 07:25:03;;;;;;;26.20;13.52;;;;;;;6.14;100.00;103075.88;5009289;28;20042;-80
2023/02/12 07:27:32;;;;;;;21.17;13.27;;;;;;;6.12;100.00;103078.38;5024899;28;20494;-82
2023/02/12 07:29:59;;;;;;;31.50;14.90;;;;;;;6.13;100.00;103085.34;5028589;28;20567;-82
2023/02/12 07:32:26;;;;;;;21.13;13.90;;;;;;;6.14;100.00;103078.47;5011047;28;20546;-81
2023/02/12 07:34:52;;;;;;;22.63;13.43;;;;;;;6.19;100.00;103081.25;5011407;28;20178;-80
2023/02/12 07:37:21;;;;;;;22.38;13.27;;;;;;;6.23;100.00;103088.41;5003958;28;20042;-83
2023/02/12 07:39:49;;;;;;;23.98;13.18;;;;;;;6.26;100.00;103084.25;5024444;28;20048;-79
2023/02/12 07:42:15;;;;;;;20.42;12.48;;;;;;;6.29;100.00;103073.97;5020439;28;20050;-82
2023/02/12 07:44:42;;;;;;;20.50;12.20;;;;;;;6.32;100.00;103074.94;5024323;28;20116;-77
2023/02/12 07:47:09;;;;;;;22.55;11.98;;;;;;;6.35;100.00;103077.69;5010550;28;20076;-78
2023/02/12 07:49:35;;;;;;;27.13;13.30;;;;;;;6.38;100.00;103076.13;5035399;28;20117;-81
2023/02/12 07:52:02;;;;;;;23.88;13.52;;;;;;;6.43;100.00;103078.97;5037588;28;20472;-80
2023/02/12 07:54:28;;;;;;;24.67;13.45;;;;;;;6.43;100.00;103078.97;5023733;28;20142;-81
2023/02/12 07:56:55;;;;;;;23.50;12.48;;;;;;;6.47;100.00;103078.28;5021683;28;20394;-82
2023/02/12 07:59:21;;;;;;;31.27;14.10;;;;;;;6.48;100.00;103080.06;5022303;28;20038;-78
2023/02/12 08:01:51;;;;;;;21.58;13.18;;;;;;;6.52;100.00;103073.28;5028117;28;20045;-81
2023/02/12 08:04:21;;;;;;;39.40;17.42;;;;;;;6.54;100.00;103085.53;5019509;28;20045;-82
2023/02/12 08:06:51;;;;;;;36.65;16.45;;;;;;;6.54;100.00;103082.94;5011819;28;20115;-82
2023/02/12 08:09:22;;;;;;;36.22;15.07;;;;;;;6.56;100.00;103080.44;5038599;28;20148;-79
2023/02/12 08:11:49;;;;;;;49.33;18.65;;;;;;;6.58;100.00;103086.56;5025847;28;20229;-79
2023/02/12 08:14:19;;;;;;;36.08;16.10;;;;;;;6.59;100.00;103090.97;5022488;28;20045;-84
2023/02/12 08:16:47;;;;;;;35.92;16.95;;;;;;;6.61;100.00;103085.03;5026652;28;20053;-78
2023/02/12 08:19:15;;;;;;;33.00;16.98;;;;;;;6.69;100.00;103080.16;5022302;28;20103;-79
2023/02/12 08:21:41;;;;;;;40.05;17.35;;;;;;;6.74;100.00;103083.88;5027244;28;20104;-80
2023/02/12 08:24:10;;;;;;;35.42;16.88;;;;;;;6.75;100.00;103089.97;5038392;28;20498;-78
2023/02/12 08:26:39;;;;;;;34.92;17.80;;;;;;;6.79;100.00;103089.28;5010474;28;20049;-83
2023/02/12 08:29:18;;;;;;;42.92;18.17;;;;;;;6.81;100.00;103098.06;5022429;28;20049;-85
2023/02/12 08:31:48;;;;;;;34.88;17.88;;;;;;;6.84;100.00;103098.19;5038013;28;20046;-83
2023/02/12 08:34:20;;;;;;;32.22;17.70;;;;;;;6.89;100.00;103104.50;5033133;28;20106;-84
2023/02/12 08:36:48;;;;;;;30.40;16.00;;;;;;;6.92;100.00;103104.66;5022442;28;20038;-82
2023/02/12 08:39:16;;;;;;;26.75;15.40;;;;;;;6.98;100.00;103108.38;5009291;28;20063;-85
2023/02/12 08:41:43;;;;;;;32.15;16.70;;;;;;;6.98;100.00;103111.84;5021536;28;20456;-77
2023/02/12 08:44:11;;;;;;;33.63;16.33;;;;;;;7.02;100.00;103107.69;5023980;28;20198;-78
2023/02/12 08:46:43;;;;;;;33.40;16.25;;;;;;;7.07;100.00;103111.38;5021645;28;20057;-77
2023/02/12 08:49:15;;;;;;;34.30;16.48;;;;;;;7.07;100.00;103114.00;5040347;28;20053;-77
2023/02/12 08:51:48;;;;;;;39.20;16.48;;;;;;;7.06;100.00;103109.59;5025446;28;20088;-78
2023/02/12 08:54:24;;;;;;;31.77;15.05;;;;;;;7.08;100.00;103118.38;5009992;28;20049;-87
2023/02/12 08:56:55;;;;;;;30.40;15.27;;;;;;;7.16;100.00;103110.88;5014043;28;20040;-78
2023/02/12 08:59:21;;;;;;;28.42;13.82;;;;;;;7.16;100.00;103113.50;5022037;28;20080;-78
2023/02/12 09:01:51;;;;;;;37.20;15.40;;;;;;;7.25;100.00;103119.13;5023386;28;20044;-77
2023/02/12 09:04:22;;;;;;;28.30;14.13;;;;;;;7.25;100.00;103122.63;5034917;28;20096;-79
2023/02/12 09:06:49;;;;;;;31.45;14.18;;;;;;;7.26;100.00;103124.41;5026068;28;20053;-78
2023/02/12 09:09:16;;;;;;;30.73;14.50;;;;;;;7.22;100.00;103130.31;5002775;28;20089;-77
2023/02/12 09:11:44;;;;;;;24.60;12.95;;;;;;;7.23;100.00;103133.81;5023772;28;20052;-80
2023/02/12 09:14:15;;;;;;;27.20;13.55;;;;;;;7.26;100.00;103136.53;5037453;28;20048;-76
2023/02/12 09:16:42;;;;;;;28.23;13.02;;;;;;;7.23;100.00;103137.28;5024367;28;20054;-80
2023/02/12 09:19:12;;;;;;;34.42;13.45;;;;;;;7.25;100.00;103143.47;5035668;28;20052;-76
2023/02/12 09:21:38;;;;;;;34.25;13.85;;;;;;;7.27;100.00;103140.94;5036761;28;20041;-76
2023/02/12 09:24:07;;;;;;;24.42;12.50;;;;;;;7.22;100.00;103142.44;5033495;28;20041;-76
2023/02/12 09:26:34;;;;;;;22.20;12.55;;;;;;;7.25;100.00;103145.19;5024688;28;20049;-80
2023/02/12 09:29:03;;;;;;;24.67;12.52;;;;;;;7.29;100.00;103150.59;5029554;28;20048;-78
2023/02/12 09:31:32;;;;;;;26.65;11.77;;;;;;;7.32;100.00;103147.22;5024129;28;20057;-82
2023/02/12 09:34:06;;;;;;;27.05;12.25;;;;;;;7.38;100.00;103152.72;5028646;28;20047;-77
2023/02/12 09:36:36;;;;;;;22.27;12.05;;;;;;;7.38;100.00;103151.81;5014246;28;20045;-77
2023/02/12 09:39:04;;;;;;;21.45;10.80;;;;;;;7.41;100.00;103149.38;5039317;28;20061;-79
2023/02/12 09:41:56;;;;;;;22.30;12.90;;;;;;;7.38;100.00;103157.03;5006529;28;20400;-81
2023/02/12 09:44:52;;;;;;;22.02;11.32;;;;;;;7.40;100.00;103160.59;5040613;28;20072;-78
2023/02/12 09:47:39;;;;;;;22.83;12.55;;;;;;;7.40;100.00;103156.28;5025387;28;20120;-77
2023/02/12 09:50:21;;;;;;;22.17;11.32;;;;;;;7.44;100.00;103155.63;5025559;28;20119;-87
2023/02/12 09:52:49;;;;;;;21.95;12.00;;;;;;;7.46;100.00;103166.09;5027296;28;20041;-79
2023/02/12 09:55:18;;;;;;;23.88;12.30;;;;;;;7.48;100.00;103159.22;5025562;28;20064;-79
2023/02/12 09:57:46;;;;;;;21.65;12.65;;;;;;;7.54;100.00;103167.31;5023529;28;20124;-79
2023/02/12 10:00:26;;;;;;;20.52;11.82;;;;;;;7.65;100.00;103161.69;5022746;28;20048;-77
2023/02/12 10:02:55;;;;;;;23.42;13.73;;;;;;;7.66;100.00;103161.75;5039835;28;20052;-80
2023/02/12 10:05:51;;;;;;;17.95;11.85;;;;;;;7.57;100.00;103162.25;5002326;28;20041;-78
2023/02/12 10:08:59;;;;;;;16.17;9.25;;;;;;;7.62;100.00;103165.06;5019389;28;20057;-82
2023/02/12 10:11:51;;;;;;;17.05;8.23;;;;;;;7.65;100.00;103164.28;5020609;28;20540;-81
2023/02/12 10:14:37;;;;;;;13.77;8.40;;;;;;;7.73;100.00;103166.41;5038540;28;20121;-80
2023/02/12 10:17:18;;;;;;;12.25;8.00;;;;;;;7.81;100.00;103173.66;5020047;28;20050;-89
2023/02/12 10:19:59;;;;;;;13.13;9.13;;;;;;;7.83;100.00;103172.91;5009269;28;20037;-77
2023/02/12 10:22:50;;;;;;;12.02;9.23;;;;;;;7.85;100.00;103170.34;5020560;28;20073;-81
2023/02/12 10:25:50;;;;;;;13.00;8.90;;;;;;;7.90;100.00;103181.88;5015215;28;20131;-79
2023/02/12 10:28:37;;;;;;;13.65;7.75;;;;;;;7.90;100.00;103172.34;5004250;28;20050;-79
2023/02/12 10:31:19;;;;;;;16.45;10.18;;;;;;;7.92;100.00;103173.28;5038625;28;20052;-77
2023/02/12 10:33:50;;;;;;;14.48;8.50;;;;;;;7.97;100.00;103172.63;5024343;28;20045;-82
2023/02/12 10:36:44;;;;;;;15.80;9.07;;;;;;;7.93;100.00;103175.09;5036611;28;20050;-80
2023/02/12 10:39:11;;;;;;;14.23;8.80;;;;;;;7.94;100.00;103173.38;5021072;28;20056;-83
2023/02/12 10:41:56;;;;;;;14.07;9.52;;;;;;;7.99;100.00;103178.78;5029033;28;20061;-79
2023/02/12 10:44:23;;;;;;;13.73;9.13;;;;;;;8.12;100.00;103175.84;5023132;28;20041;-84
2023/02/12 10:46:50;;;;;;;14.35;8.57;;;;;;;8.24;100.00;103173.78;5025071;28;20037;-83
2023/02/12 10:49:19;;;;;;;11.02;9.27;;;;;;;8.26;100.00;103173.81;5022591;28;20060;-83
2023/02/12 10:51:57;;;;;;;10.30;8.23;;;;;;;8.33;100.00;103175.88;5027592;28;20129;-81
2023/02/12 10:54:46;;;;;;;10.23;6.50;;;;;;;8.44;100.00;103174.56;5010102;28;20067;-77
2023/02/12 10:57:26;;;;;;;8.95;5.43;;;;;;;8.56;100.00;103173.31;5026964;28;20056;-76
2023/02/12 10:59:57;;;;;;;7.78;5.93;;;;;;;8.54;100.00;103169.75;5010259;28;20063;-77
2023/02/12 11:02:28;;;;;;;6.80;4.63;;;;;;;8.56;100.00;103166.38;5017013;28;20472;-80
2023/02/12 11:04:58;;;;;;;7.05;4.40;;;;;;;8.47;100.00;103173.84;5033299;28;20041;-83
2023/02/12 11:07:27;;;;;;;9.13;5.43;;;;;;;8.40;100.00;103171.78;5030211;28;20973;-79
2023/02/12 11:10:06;;;;;;;8.02;5.40;;;;;;;8.39;100.00;103164.78;5045089;28;20041;-78
2023/02/12 11:12:46;;;;;;;7.20;5.25;;;;;;;8.33;100.00;103165.44;5024797;28;20048;-82
2023/02/12 11:15:20;;;;;;;6.28;5.05;;;;;;;8.24;100.00;103162.47;5024410;28;20045;-81
2023/02/12 11:18:08;;;;;;;7.57;5.07;;;;;;;8.23;100.00;103161.53;5028352;28;20149;-81
2023/02/12 11:20:42;;;;;;;12.18;6.35;;;;;;;8.24;100.00;103160.72;5041589;28;20184;-77
2023/02/12 11:23:39;;;;;;;;;;;;;;;8.34;100.00;103161.09;5013197;28;20056;-82
2023/02/12 11:26:25;;;;;;;10.73;6.93;;;;;;;8.36;100.00;103157.72;5026789;28;20439;-89
2023/02/12 11:28:56;;;;;;;9.75;6.40;;;;;;;8.55;100.00;103159.41;5034696;28;20049;-78
2023/02/12 11:31:35;;;;;;;11.93;7.35;;;;;;;8.66;100.00;103151.09;5033645;28;20065;-81
2023/02/12 11:34:18;;;;;;;9.25;6.30;;;;;;;8.70;100.00;103153.00;5028756;28;20463;-87
2023/02/12 11:36:51;;;;;;;8.80;6.75;;;;;;;8.80;100.00;103149.91;5029336;28;20045;-78
2023/02/12 11:39:24;;;;;;;6.60;5.15;;;;;;;8.89;100.00;103144.13;5043694;28;20042;-78
2023/02/12 11:42:13;;;;;;;7.37;6.53;;;;;;;8.98;100.00;103141.84;5015874;28;20052;-86
2023/02/12 11:44:47;;;;;;;10.05;6.72;;;;;;;9.08;100.00;103136.16;5031727;28;20049;-77
2023/02/12 11:47:30;;;;;;;6.95;6.00;;;;;;;9.14;100.00;103142.44;5026235;28;20045;-91
2023/02/12 11:50:08;;;;;;;7.32;5.55;;;;;;;9.15;100.00;103146.84;5025127;28;20491;-85